sensor_id;sensor_type;location;lat;lon;timestamp;temperature;humidity
64874;HTU21D;51367;45.204;38.576;2022-12-16T00:00:22;7.05;89.25
64874;HTU21D;51367;45.204;38.576;2022-12-16T00:02:49;7.05;89.24
64874;HTU21D;51367;45.204;38.576;2022-12-16T00:05:15;7.07;89.24
64874;HTU21D;51367;45.204;38.576;2022-12-16T00:07:41;7.07;89.24
64874;HTU21D;51367;45.204;38.576;2022-12-16T00:10:07;7.07;89.22
64874;HTU21D;51367;45.204;38.576;2022-12-16T00:12:33;7.08;89.21
64874;HTU21D;51367;45.204;38.576;2022-12-16T00:15:00;7.08;89.20
64874;HTU21D;51367;45.204;38.576;2022-12-16T00:17:26;7.07;89.21
64874;HTU21D;51367;45.204;38.576;2022-12-16T00:19:51;7.07;89.21
64874;HTU21D;51367;45.204;38.576;2022-12-16T00:22:17;7.05;89.22
64874;HTU21D;51367;45.204;38.576;2022-12-16T00:24:43;7.07;89.25
64874;HTU21D;51367;45.204;38.576;2022-12-16T00:27:09;7.07;89.25
64874;HTU21D;51367;45.204;38.576;2022-12-16T00:29:35;7.07;89.26
64874;HTU21D;51367;45.204;38.576;2022-12-16T00:32:01;7.07;89.27
64874;HTU21D;51367;45.204;38.576;2022-12-16T00:34:28;7.08;89.27
64874;HTU21D;51367;45.204;38.576;2022-12-16T00:36:54;7.08;89.26
64874;HTU21D;51367;45.204;38.576;2022-12-16T00:39:19;7.08;89.28
64874;HTU21D;51367;45.204;38.576;2022-12-16T00:41:45;7.09;89.31
64874;HTU21D;51367;45.204;38.576;2022-12-16T00:44:15;7.10;89.31
64874;HTU21D;51367;45.204;38.576;2022-12-16T00:46:41;7.10;89.31
64874;HTU21D;51367;45.204;38.576;2022-12-16T00:49:07;7.12;89.31
64874;HTU21D;51367;45.204;38.576;2022-12-16T00:51:33;7.13;89.31
64874;HTU21D;51367;45.204;38.576;2022-12-16T00:53:59;7.14;89.28
64874;HTU21D;51367;45.204;38.576;2022-12-16T00:56:25;7.16;89.26
64874;HTU21D;51367;45.204;38.576;2022-12-16T00:58:51;7.17;89.26
64874;HTU21D;51367;45.204;38.576;2022-12-16T01:01:17;7.17;89.27
64874;HTU21D;51367;45.204;38.576;2022-12-16T01:03:44;7.17;89.28
64874;HTU21D;51367;45.204;38.576;2022-12-16T01:06:15;7.17;89.29
64874;HTU21D;51367;45.204;38.576;2022-12-16T01:08:42;7.18;89.30
64874;HTU21D;51367;45.204;38.576;2022-12-16T01:11:15;7.16;89.33
64874;HTU21D;51367;45.204;38.576;2022-12-16T01:13:42;7.18;89.37
64874;HTU21D;51367;45.204;38.576;2022-12-16T01:16:08;7.18;89.39
64874;HTU21D;51367;45.204;38.576;2022-12-16T01:18:34;7.18;89.44
64874;HTU21D;51367;45.204;38.576;2022-12-16T01:21:02;7.19;89.49
64874;HTU21D;51367;45.204;38.576;2022-12-16T01:23:28;7.19;89.55
64874;HTU21D;51367;45.204;38.576;2022-12-16T01:25:58;7.20;89.64
64874;HTU21D;51367;45.204;38.576;2022-12-16T01:28:25;7.20;89.66
64874;HTU21D;51367;45.204;38.576;2022-12-16T01:30:59;7.20;89.69
64874;HTU21D;51367;45.204;38.576;2022-12-16T01:33:30;7.24;89.75
64874;HTU21D;51367;45.204;38.576;2022-12-16T01:36:00;7.25;89.82
64874;HTU21D;51367;45.204;38.576;2022-12-16T01:38:27;7.28;89.92
64874;HTU21D;51367;45.204;38.576;2022-12-16T01:40:53;7.30;89.99
64874;HTU21D;51367;45.204;38.576;2022-12-16T01:43:23;7.34;89.97
64874;HTU21D;51367;45.204;38.576;2022-12-16T01:45:51;7.35;90.01
64874;HTU21D;51367;45.204;38.576;2022-12-16T01:48:38;7.38;90.01
64874;HTU21D;51367;45.204;38.576;2022-12-16T01:51:26;7.41;89.99
64874;HTU21D;51367;45.204;38.576;2022-12-16T01:54:17;7.44;89.98
64874;HTU21D;51367;45.204;38.576;2022-12-16T01:56:46;7.48;89.99
64874;HTU21D;51367;45.204;38.576;2022-12-16T01:59:14;7.50;89.99
64874;HTU21D;51367;45.204;38.576;2022-12-16T02:01:41;7.52;89.97
64874;HTU21D;51367;45.204;38.576;2022-12-16T02:04:07;7.53;89.97
64874;HTU21D;51367;45.204;38.576;2022-12-16T02:06:33;7.54;89.97
64874;HTU21D;51367;45.204;38.576;2022-12-16T02:09:02;7.54;89.96
64874;HTU21D;51367;45.204;38.576;2022-12-16T02:17:17;7.60;90.02
64874;HTU21D;51367;45.204;38.576;2022-12-16T02:26:13;7.73;90.20
64874;HTU21D;51367;45.204;38.576;2022-12-16T02:31:59;7.79;90.09
64874;HTU21D;51367;45.204;38.576;2022-12-16T02:37:30;7.88;90.08
64874;HTU21D;51367;45.204;38.576;2022-12-16T02:40:20;7.93;90.05
64874;HTU21D;51367;45.204;38.576;2022-12-16T02:42:52;7.96;90.01
64874;HTU21D;51367;45.204;38.576;2022-12-16T02:45:24;8.01;89.99
64874;HTU21D;51367;45.204;38.576;2022-12-16T02:47:52;8.04;90.08
64874;HTU21D;51367;45.204;38.576;2022-12-16T02:50:43;8.09;90.13
64874;HTU21D;51367;45.204;38.576;2022-12-16T02:53:08;8.14;90.23
64874;HTU21D;51367;45.204;38.576;2022-12-16T03:04:02;8.26;90.31
64874;HTU21D;51367;45.204;38.576;2022-12-16T03:06:32;8.27;90.34
64874;HTU21D;51367;45.204;38.576;2022-12-16T03:09:02;8.28;90.44
64874;HTU21D;51367;45.204;38.576;2022-12-16T03:11:32;8.30;90.45
64874;HTU21D;51367;45.204;38.576;2022-12-16T03:13:59;8.32;90.45
64874;HTU21D;51367;45.204;38.576;2022-12-16T03:16:30;8.33;90.44
64874;HTU21D;51367;45.204;38.576;2022-12-16T03:19:03;8.32;90.42
64874;HTU21D;51367;45.204;38.576;2022-12-16T03:21:35;8.33;90.41
64874;HTU21D;51367;45.204;38.576;2022-12-16T03:24:07;8.34;90.40
64874;HTU21D;51367;45.204;38.576;2022-12-16T03:26:43;8.35;90.38
64874;HTU21D;51367;45.204;38.576;2022-12-16T03:29:27;8.35;90.36
64874;HTU21D;51367;45.204;38.576;2022-12-16T03:32:01;8.36;90.36
64874;HTU21D;51367;45.204;38.576;2022-12-16T03:34:31;8.36;90.35
64874;HTU21D;51367;45.204;38.576;2022-12-16T03:37:05;8.38;90.35
64874;HTU21D;51367;45.204;38.576;2022-12-16T03:39:34;8.39;90.34
64874;HTU21D;51367;45.204;38.576;2022-12-16T03:42:02;8.42;90.34
64874;HTU21D;51367;45.204;38.576;2022-12-16T03:44:29;8.45;90.34
64874;HTU21D;51367;45.204;38.576;2022-12-16T03:46:55;8.46;90.33
64874;HTU21D;51367;45.204;38.576;2022-12-16T03:49:22;8.48;90.29
64874;HTU21D;51367;45.204;38.576;2022-12-16T03:51:48;8.50;90.28
64874;HTU21D;51367;45.204;38.576;2022-12-16T03:54:14;8.50;90.27
64874;HTU21D;51367;45.204;38.576;2022-12-16T03:56:40;8.52;90.26
64874;HTU21D;51367;45.204;38.576;2022-12-16T03:59:06;8.50;90.24
64874;HTU21D;51367;45.204;38.576;2022-12-16T04:01:32;8.49;90.23
64874;HTU21D;51367;45.204;38.576;2022-12-16T04:03:58;8.49;90.23
64874;HTU21D;51367;45.204;38.576;2022-12-16T04:06:24;8.48;90.25
64874;HTU21D;51367;45.204;38.576;2022-12-16T04:08:50;8.47;90.27
64874;HTU21D;51367;45.204;38.576;2022-12-16T04:11:16;8.48;90.28
64874;HTU21D;51367;45.204;38.576;2022-12-16T04:14:00;8.49;90.27
64874;HTU21D;51367;45.204;38.576;2022-12-16T04:16:45;8.48;90.26
64874;HTU21D;51367;45.204;38.576;2022-12-16T04:19:33;8.48;90.24
64874;HTU21D;51367;45.204;38.576;2022-12-16T04:22:23;8.48;90.22
64874;HTU21D;51367;45.204;38.576;2022-12-16T04:25:34;8.48;90.20
64874;HTU21D;51367;45.204;38.576;2022-12-16T04:28:01;8.49;90.18
64874;HTU21D;51367;45.204;38.576;2022-12-16T04:30:30;8.49;90.17
64874;HTU21D;51367;45.204;38.576;2022-12-16T04:33:03;8.48;90.16
64874;HTU21D;51367;45.204;38.576;2022-12-16T04:35:48;8.48;90.13
64874;HTU21D;51367;45.204;38.576;2022-12-16T04:38:33;8.47;90.13
64874;HTU21D;51367;45.204;38.576;2022-12-16T04:41:17;8.46;90.13
64874;HTU21D;51367;45.204;38.576;2022-12-16T04:44:02;8.45;90.14
64874;HTU21D;51367;45.204;38.576;2022-12-16T04:46:47;8.44;90.14
64874;HTU21D;51367;45.204;38.576;2022-12-16T04:49:31;8.45;90.15
64874;HTU21D;51367;45.204;38.576;2022-12-16T04:52:16;8.44;90.14
64874;HTU21D;51367;45.204;38.576;2022-12-16T04:55:00;8.44;90.15
64874;HTU21D;51367;45.204;38.576;2022-12-16T04:57:51;8.43;90.15
64874;HTU21D;51367;45.204;38.576;2022-12-16T05:00:36;8.43;90.16
64874;HTU21D;51367;45.204;38.576;2022-12-16T05:03:20;8.44;90.14
64874;HTU21D;51367;45.204;38.576;2022-12-16T05:06:05;8.44;90.12
64874;HTU21D;51367;45.204;38.576;2022-12-16T05:08:49;8.45;90.09
64874;HTU21D;51367;45.204;38.576;2022-12-16T05:11:34;8.46;90.07
64874;HTU21D;51367;45.204;38.576;2022-12-16T05:14:18;8.44;90.04
64874;HTU21D;51367;45.204;38.576;2022-12-16T05:17:03;8.44;90.05
64874;HTU21D;51367;45.204;38.576;2022-12-16T05:19:48;8.44;90.03
64874;HTU21D;51367;45.204;38.576;2022-12-16T05:22:32;8.45;90.05
64874;HTU21D;51367;45.204;38.576;2022-12-16T05:25:17;8.43;90.03
64874;HTU21D;51367;45.204;38.576;2022-12-16T05:28:01;8.43;90.06
64874;HTU21D;51367;45.204;38.576;2022-12-16T05:30:46;8.45;90.08
64874;HTU21D;51367;45.204;38.576;2022-12-16T05:33:30;8.46;90.09
64874;HTU21D;51367;45.204;38.576;2022-12-16T05:36:14;8.48;90.08
64874;HTU21D;51367;45.204;38.576;2022-12-16T05:38:59;8.52;90.05
64874;HTU21D;51367;45.204;38.576;2022-12-16T05:41:43;8.52;90.00
64874;HTU21D;51367;45.204;38.576;2022-12-16T05:44:28;8.53;90.02
64874;HTU21D;51367;45.204;38.576;2022-12-16T05:47:12;8.57;90.01
64874;HTU21D;51367;45.204;38.576;2022-12-16T05:49:57;8.59;90.00
64874;HTU21D;51367;45.204;38.576;2022-12-16T05:52:49;8.62;89.96
64874;HTU21D;51367;45.204;38.576;2022-12-16T05:55:34;8.64;89.92
64874;HTU21D;51367;45.204;38.576;2022-12-16T05:58:18;8.64;89.95
64874;HTU21D;51367;45.204;38.576;2022-12-16T06:01:03;8.67;89.96
64874;HTU21D;51367;45.204;38.576;2022-12-16T06:03:47;8.71;90.04
64874;HTU21D;51367;45.204;38.576;2022-12-16T06:06:31;8.85;90.48
64874;HTU21D;51367;45.204;38.576;2022-12-16T06:09:16;9.18;91.17
64874;HTU21D;51367;45.204;38.576;2022-12-16T06:12:00;9.45;91.29
64874;HTU21D;51367;45.204;38.576;2022-12-16T06:14:45;9.76;91.37
64874;HTU21D;51367;45.204;38.576;2022-12-16T06:17:29;10.21;91.54
64874;HTU21D;51367;45.204;38.576;2022-12-16T06:20:14;10.70;91.63
64874;HTU21D;51367;45.204;38.576;2022-12-16T06:22:58;11.16;91.53
64874;HTU21D;51367;45.204;38.576;2022-12-16T06:25:42;11.58;91.34
64874;HTU21D;51367;45.204;38.576;2022-12-16T06:28:27;11.89;91.04
64874;HTU21D;51367;45.204;38.576;2022-12-16T06:31:12;12.05;90.79
64874;HTU21D;51367;45.204;38.576;2022-12-16T06:33:56;12.22;90.84
64874;HTU21D;51367;45.204;38.576;2022-12-16T06:36:41;12.64;91.36
64874;HTU21D;51367;45.204;38.576;2022-12-16T06:39:25;13.29;91.64
64874;HTU21D;51367;45.204;38.576;2022-12-16T06:42:09;13.95;91.52
64874;HTU21D;51367;45.204;38.576;2022-12-16T06:44:54;14.65;91.17
64874;HTU21D;51367;45.204;38.576;2022-12-16T06:47:39;15.28;90.67
64874;HTU21D;51367;45.204;38.576;2022-12-16T06:50:25;15.84;90.22
64874;HTU21D;51367;45.204;38.576;2022-12-16T06:53:09;16.36;89.77
64874;HTU21D;51367;45.204;38.576;2022-12-16T06:55:54;16.82;89.34
64874;HTU21D;51367;45.204;38.576;2022-12-16T06:58:38;17.13;89.07
64874;HTU21D;51367;45.204;38.576;2022-12-16T07:01:22;17.37;88.82
64874;HTU21D;51367;45.204;38.576;2022-12-16T07:04:07;17.43;88.29
64874;HTU21D;51367;45.204;38.576;2022-12-16T07:06:51;17.30;88.10
64874;HTU21D;51367;45.204;38.576;2022-12-16T07:09:35;17.30;88.67
64874;HTU21D;51367;45.204;38.576;2022-12-16T07:12:20;17.38;88.61
64874;HTU21D;51367;45.204;38.576;2022-12-16T07:15:05;17.53;88.67
64874;HTU21D;51367;45.204;38.576;2022-12-16T07:17:50;17.78;88.60
64874;HTU21D;51367;45.204;38.576;2022-12-16T07:20:34;18.04;88.54
64874;HTU21D;51367;45.204;38.576;2022-12-16T07:23:18;18.32;88.12
64874;HTU21D;51367;45.204;38.576;2022-12-16T07:26:03;18.59;87.77
64874;HTU21D;51367;45.204;38.576;2022-12-16T07:28:47;18.82;87.33
64874;HTU21D;51367;45.204;38.576;2022-12-16T07:31:32;18.97;86.68
64874;HTU21D;51367;45.204;38.576;2022-12-16T07:34:16;19.09;86.19
64874;HTU21D;51367;45.204;38.576;2022-12-16T07:37:00;19.06;85.23
64874;HTU21D;51367;45.204;38.576;2022-12-16T07:39:45;18.94;84.90
64874;HTU21D;51367;45.204;38.576;2022-12-16T07:42:29;19.03;84.85
64874;HTU21D;51367;45.204;38.576;2022-12-16T07:45:14;19.14;84.68
64874;HTU21D;51367;45.204;38.576;2022-12-16T07:47:58;19.37;84.48
64874;HTU21D;51367;45.204;38.576;2022-12-16T07:50:43;19.52;83.86
64874;HTU21D;51367;45.204;38.576;2022-12-16T07:53:27;19.65;83.25
64874;HTU21D;51367;45.204;38.576;2022-12-16T07:56:11;19.75;82.38
64874;HTU21D;51367;45.204;38.576;2022-12-16T07:58:56;19.72;81.24
64874;HTU21D;51367;45.204;38.576;2022-12-16T08:01:40;19.60;80.82
64874;HTU21D;51367;45.204;38.576;2022-12-16T08:04:24;19.59;80.73
64874;HTU21D;51367;45.204;38.576;2022-12-16T08:07:09;19.59;80.30
64874;HTU21D;51367;45.204;38.576;2022-12-16T08:09:53;19.54;79.69
64874;HTU21D;51367;45.204;38.576;2022-12-16T08:16:18;19.31;79.47
64874;HTU21D;51367;45.204;38.576;2022-12-16T08:19:03;19.39;79.26
64874;HTU21D;51367;45.204;38.576;2022-12-16T08:21:47;19.43;78.81
64874;HTU21D;51367;45.204;38.576;2022-12-16T08:24:31;19.47;78.48
64874;HTU21D;51367;45.204;38.576;2022-12-16T08:27:16;19.44;77.82
64874;HTU21D;51367;45.204;38.576;2022-12-16T08:30:00;19.15;77.24
64874;HTU21D;51367;45.204;38.576;2022-12-16T08:32:45;18.77;77.20
64874;HTU21D;51367;45.204;38.576;2022-12-16T08:35:29;18.51;77.35
64874;HTU21D;51367;45.204;38.576;2022-12-16T08:38:14;18.32;77.36
64874;HTU21D;51367;45.204;38.576;2022-12-16T08:40:58;18.13;77.29
64874;HTU21D;51367;45.204;38.576;2022-12-16T08:43:42;17.95;77.18
64874;HTU21D;51367;45.204;38.576;2022-12-16T08:46:27;17.72;77.18
64874;HTU21D;51367;45.204;38.576;2022-12-16T08:49:11;17.51;77.35
64874;HTU21D;51367;45.204;38.576;2022-12-16T08:51:56;17.38;77.41
64874;HTU21D;51367;45.204;38.576;2022-12-16T08:54:40;17.31;77.43
64874;HTU21D;51367;45.204;38.576;2022-12-16T08:57:25;17.26;77.38
64874;HTU21D;51367;45.204;38.576;2022-12-16T09:00:10;17.17;77.19
64874;HTU21D;51367;45.204;38.576;2022-12-16T09:02:56;16.99;77.15
64874;HTU21D;51367;45.204;38.576;2022-12-16T09:05:40;16.63;76.53
64874;HTU21D;51367;45.204;38.576;2022-12-16T09:08:25;16.21;77.44
64874;HTU21D;51367;45.204;38.576;2022-12-16T09:11:09;15.97;77.82
64874;HTU21D;51367;45.204;38.576;2022-12-16T09:13:54;15.75;78.00
64874;HTU21D;51367;45.204;38.576;2022-12-16T09:16:38;15.58;78.18
64874;HTU21D;51367;45.204;38.576;2022-12-16T09:19:22;15.43;78.30
64874;HTU21D;51367;45.204;38.576;2022-12-16T09:22:07;15.29;78.25
64874;HTU21D;51367;45.204;38.576;2022-12-16T09:24:51;14.99;77.98
64874;HTU21D;51367;45.204;38.576;2022-12-16T09:27:36;14.65;78.59
64874;HTU21D;51367;45.204;38.576;2022-12-16T09:30:20;14.44;79.39
64874;HTU21D;51367;45.204;38.576;2022-12-16T09:33:04;14.34;79.44
64874;HTU21D;51367;45.204;38.576;2022-12-16T09:35:49;14.20;79.37
64874;HTU21D;51367;45.204;38.576;2022-12-16T09:38:33;13.99;79.78
64874;HTU21D;51367;45.204;38.576;2022-12-16T09:50:38;13.89;79.84
64874;HTU21D;51367;45.204;38.576;2022-12-16T09:53:25;13.85;79.66
64874;HTU21D;51367;45.204;38.576;2022-12-16T09:56:20;13.77;79.54
64874;HTU21D;51367;45.204;38.576;2022-12-16T09:59:11;13.65;79.54
64874;HTU21D;51367;45.204;38.576;2022-12-16T10:01:56;13.49;79.59
64874;HTU21D;51367;45.204;38.576;2022-12-16T10:04:41;13.35;79.66
64874;HTU21D;51367;45.204;38.576;2022-12-16T10:07:30;13.23;79.81
64874;HTU21D;51367;45.204;38.576;2022-12-16T10:13:42;12.88;80.11
64874;HTU21D;51367;45.204;38.576;2022-12-16T10:19:37;12.57;80.54
64874;HTU21D;51367;45.204;38.576;2022-12-16T10:23:00;12.48;80.59
64874;HTU21D;51367;45.204;38.576;2022-12-16T10:25:48;12.43;80.71
64874;HTU21D;51367;45.204;38.576;2022-12-16T10:31:19;12.45;80.65
64874;HTU21D;51367;45.204;38.576;2022-12-16T10:34:10;12.42;80.61
64874;HTU21D;51367;45.204;38.576;2022-12-16T10:36:56;12.36;80.62
64874;HTU21D;51367;45.204;38.576;2022-12-16T10:39:45;12.33;80.66
64874;HTU21D;51367;45.204;38.576;2022-12-16T10:42:39;12.29;80.67
64874;HTU21D;51367;45.204;38.576;2022-12-16T10:45:44;12.22;80.69
64874;HTU21D;51367;45.204;38.576;2022-12-16T10:48:30;12.18;80.75
64874;HTU21D;51367;45.204;38.576;2022-12-16T10:51:20;12.10;80.78
64874;HTU21D;51367;45.204;38.576;2022-12-16T10:54:27;12.03;80.94
64874;HTU21D;51367;45.204;38.576;2022-12-16T11:00:14;11.83;81.22
64874;HTU21D;51367;45.204;38.576;2022-12-16T11:03:19;11.78;81.23
64874;HTU21D;51367;45.204;38.576;2022-12-16T11:06:04;11.73;81.30
64874;HTU21D;51367;45.204;38.576;2022-12-16T11:08:49;11.69;81.32
64874;HTU21D;51367;45.204;38.576;2022-12-16T11:11:33;11.62;81.27
64874;HTU21D;51367;45.204;38.576;2022-12-16T11:14:29;11.52;81.46
64874;HTU21D;51367;45.204;38.576;2022-12-16T11:17:20;11.44;81.63
64874;HTU21D;51367;45.204;38.576;2022-12-16T11:20:25;11.46;81.72
64874;HTU21D;51367;45.204;38.576;2022-12-16T11:23:21;11.49;81.72
64874;HTU21D;51367;45.204;38.576;2022-12-16T11:26:14;11.52;81.62
64874;HTU21D;51367;45.204;38.576;2022-12-16T11:35:02;11.61;81.44
64874;HTU21D;51367;45.204;38.576;2022-12-16T11:37:49;11.52;81.46
64874;HTU21D;51367;45.204;38.576;2022-12-16T11:40:36;11.48;81.53
64874;HTU21D;51367;45.204;38.576;2022-12-16T11:43:23;11.39;81.57
64874;HTU21D;51367;45.204;38.576;2022-12-16T11:46:12;11.33;81.84
64874;HTU21D;51367;45.204;38.576;2022-12-16T11:49:01;11.34;81.98
64874;HTU21D;51367;45.204;38.576;2022-12-16T11:51:55;11.37;81.96
64874;HTU21D;51367;45.204;38.576;2022-12-16T11:54:52;11.32;81.84
64874;HTU21D;51367;45.204;38.576;2022-12-16T11:57:44;11.17;81.97
64874;HTU21D;51367;45.204;38.576;2022-12-16T12:00:32;11.11;82.13
64874;HTU21D;51367;45.204;38.576;2022-12-16T12:03:24;11.08;82.17
64874;HTU21D;51367;45.204;38.576;2022-12-16T12:09:16;11.03;82.18
64874;HTU21D;51367;45.204;38.576;2022-12-16T12:12:17;11.03;82.20
64874;HTU21D;51367;45.204;38.576;2022-12-16T12:24:06;10.95;82.12
64874;HTU21D;51367;45.204;38.576;2022-12-16T12:27:12;10.92;82.17
64874;HTU21D;51367;45.204;38.576;2022-12-16T12:30:10;10.87;82.13
64874;HTU21D;51367;45.204;38.576;2022-12-16T12:33:08;10.83;82.19
64874;HTU21D;51367;45.204;38.576;2022-12-16T12:36:03;10.79;82.25
64874;HTU21D;51367;45.204;38.576;2022-12-16T12:48:41;10.69;82.34
64874;HTU21D;51367;45.204;38.576;2022-12-16T12:57:18;10.66;82.40
64874;HTU21D;51367;45.204;38.576;2022-12-16T13:00:13;10.66;82.42
64874;HTU21D;51367;45.204;38.576;2022-12-16T13:06:14;10.65;82.42
64874;HTU21D;51367;45.204;38.576;2022-12-16T13:08:59;10.64;82.44
64874;HTU21D;51367;45.204;38.576;2022-12-16T13:20:42;10.79;82.62
64874;HTU21D;51367;45.204;38.576;2022-12-16T13:26:14;10.79;82.62
64874;HTU21D;51367;45.204;38.576;2022-12-16T13:32:16;10.81;82.61
64874;HTU21D;51367;45.204;38.576;2022-12-16T13:35:05;10.77;82.56
64874;HTU21D;51367;45.204;38.576;2022-12-16T13:38:18;10.72;82.55
64874;HTU21D;51367;45.204;38.576;2022-12-16T13:41:06;10.66;82.55
64874;HTU21D;51367;45.204;38.576;2022-12-16T13:44:08;10.58;82.60
64874;HTU21D;51367;45.204;38.576;2022-12-16T13:46:55;10.53;82.67
64874;HTU21D;51367;45.204;38.576;2022-12-16T13:49:50;10.49;82.77
64874;HTU21D;51367;45.204;38.576;2022-12-16T13:52:37;10.45;82.81
64874;HTU21D;51367;45.204;38.576;2022-12-16T13:58:53;10.39;82.81
64874;HTU21D;51367;45.204;38.576;2022-12-16T14:04:38;10.30;82.86
64874;HTU21D;51367;45.204;38.576;2022-12-16T14:07:25;10.30;82.88
64874;HTU21D;51367;45.204;38.576;2022-12-16T14:10:34;10.24;82.91
64874;HTU21D;51367;45.204;38.576;2022-12-16T14:13:30;10.20;82.97
64874;HTU21D;51367;45.204;38.576;2022-12-16T14:25:32;10.12;83.10
64874;HTU21D;51367;45.204;38.576;2022-12-16T14:31:23;10.08;83.14
64874;HTU21D;51367;45.204;38.576;2022-12-16T14:34:25;10.05;83.19
64874;HTU21D;51367;45.204;38.576;2022-12-16T14:37:36;10.00;83.20
64874;HTU21D;51367;45.204;38.576;2022-12-16T14:40:27;9.98;83.26
64874;HTU21D;51367;45.204;38.576;2022-12-16T14:43:17;9.96;83.27
64874;HTU21D;51367;45.204;38.576;2022-12-16T14:46:02;9.92;83.30
64874;HTU21D;51367;45.204;38.576;2022-12-16T14:48:48;9.90;83.37
64874;HTU21D;51367;45.204;38.576;2022-12-16T14:51:46;9.85;83.41
64874;HTU21D;51367;45.204;38.576;2022-12-16T14:54:35;9.85;83.45
64874;HTU21D;51367;45.204;38.576;2022-12-16T14:57:25;9.80;83.49
64874;HTU21D;51367;45.204;38.576;2022-12-16T15:06:01;9.75;83.73
64874;HTU21D;51367;45.204;38.576;2022-12-16T15:08:52;9.75;83.74
64874;HTU21D;51367;45.204;38.576;2022-12-16T15:11:39;9.76;83.74
64874;HTU21D;51367;45.204;38.576;2022-12-16T15:14:34;9.76;83.72
64874;HTU21D;51367;45.204;38.576;2022-12-16T15:18:01;9.75;83.70
64874;HTU21D;51367;45.204;38.576;2022-12-16T15:20:28;9.74;83.71
64874;HTU21D;51367;45.204;38.576;2022-12-16T15:23:24;9.72;83.74
64874;HTU21D;51367;45.204;38.576;2022-12-16T15:26:19;9.70;83.77
64874;HTU21D;51367;45.204;38.576;2022-12-16T15:29:34;9.70;83.81
64874;HTU21D;51367;45.204;38.576;2022-12-16T15:32:34;9.68;83.81
64874;HTU21D;51367;45.204;38.576;2022-12-16T15:35:30;9.69;83.81
64874;HTU21D;51367;45.204;38.576;2022-12-16T15:41:04;9.67;83.84
64874;HTU21D;51367;45.204;38.576;2022-12-16T15:43:50;9.64;83.85
64874;HTU21D;51367;45.204;38.576;2022-12-16T15:46:35;9.60;83.91
64874;HTU21D;51367;45.204;38.576;2022-12-16T15:55:29;9.55;84.07
64874;HTU21D;51367;45.204;38.576;2022-12-16T16:01:06;9.50;84.06
64874;HTU21D;51367;45.204;38.576;2022-12-16T16:03:53;9.48;84.10
64874;HTU21D;51367;45.204;38.576;2022-12-16T16:06:48;9.44;84.16
64874;HTU21D;51367;45.204;38.576;2022-12-16T16:09:35;9.41;84.17
64874;HTU21D;51367;45.204;38.576;2022-12-16T16:12:22;9.41;84.20
64874;HTU21D;51367;45.204;38.576;2022-12-16T16:15:08;9.40;84.26
64874;HTU21D;51367;45.204;38.576;2022-12-16T16:17:59;9.39;84.29
64874;HTU21D;51367;45.204;38.576;2022-12-16T16:20:45;9.40;84.29
64874;HTU21D;51367;45.204;38.576;2022-12-16T16:23:30;9.39;84.29
64874;HTU21D;51367;45.204;38.576;2022-12-16T16:26:18;9.38;84.32
64874;HTU21D;51367;45.204;38.576;2022-12-16T16:29:03;9.40;84.32
64874;HTU21D;51367;45.204;38.576;2022-12-16T16:31:48;9.36;84.29
64874;HTU21D;51367;45.204;38.576;2022-12-16T16:34:32;9.33;84.31
64874;HTU21D;51367;45.204;38.576;2022-12-16T16:37:19;9.26;84.39
64874;HTU21D;51367;45.204;38.576;2022-12-16T16:40:32;9.21;84.53
64874;HTU21D;51367;45.204;38.576;2022-12-16T16:43:17;9.19;84.61
64874;HTU21D;51367;45.204;38.576;2022-12-16T16:46:11;9.18;84.65
64874;HTU21D;51367;45.204;38.576;2022-12-16T16:49:01;9.19;84.64
64874;HTU21D;51367;45.204;38.576;2022-12-16T16:51:45;9.18;84.63
64874;HTU21D;51367;45.204;38.576;2022-12-16T16:54:30;9.15;84.64
64874;HTU21D;51367;45.204;38.576;2022-12-16T16:57:15;9.11;84.72
64874;HTU21D;51367;45.204;38.576;2022-12-16T16:59:59;9.09;84.78
64874;HTU21D;51367;45.204;38.576;2022-12-16T17:02:43;9.07;84.83
64874;HTU21D;51367;45.204;38.576;2022-12-16T17:05:28;9.07;84.87
64874;HTU21D;51367;45.204;38.576;2022-12-16T17:08:13;9.08;84.89
64874;HTU21D;51367;45.204;38.576;2022-12-16T17:10:58;9.05;84.90
64874;HTU21D;51367;45.204;38.576;2022-12-16T17:13:42;9.05;84.92
64874;HTU21D;51367;45.204;38.576;2022-12-16T17:16:26;9.04;84.96
64874;HTU21D;51367;45.204;38.576;2022-12-16T17:19:12;9.03;85.00
64874;HTU21D;51367;45.204;38.576;2022-12-16T17:21:57;8.98;85.09
64874;HTU21D;51367;45.204;38.576;2022-12-16T17:24:43;8.95;85.21
64874;HTU21D;51367;45.204;38.576;2022-12-16T17:27:28;8.93;85.32
64874;HTU21D;51367;45.204;38.576;2022-12-16T17:30:18;8.92;85.40
64874;HTU21D;51367;45.204;38.576;2022-12-16T17:33:03;8.91;85.47
64874;HTU21D;51367;45.204;38.576;2022-12-16T17:35:50;8.90;85.53
64874;HTU21D;51367;45.204;38.576;2022-12-16T17:38:41;8.91;85.57
64874;HTU21D;51367;45.204;38.576;2022-12-16T17:41:27;8.91;85.58
64874;HTU21D;51367;45.204;38.576;2022-12-16T17:44:12;8.91;85.61
64874;HTU21D;51367;45.204;38.576;2022-12-16T17:46:57;8.89;85.70
64874;HTU21D;51367;45.204;38.576;2022-12-16T17:49:41;8.89;85.75
64874;HTU21D;51367;45.204;38.576;2022-12-16T17:52:27;8.87;85.83
64874;HTU21D;51367;45.204;38.576;2022-12-16T17:55:12;8.86;85.92
64874;HTU21D;51367;45.204;38.576;2022-12-16T17:57:57;8.83;86.00
64874;HTU21D;51367;45.204;38.576;2022-12-16T18:00:43;8.81;86.06
64874;HTU21D;51367;45.204;38.576;2022-12-16T18:03:27;8.82;86.11
64874;HTU21D;51367;45.204;38.576;2022-12-16T18:06:11;8.81;86.15
64874;HTU21D;51367;45.204;38.576;2022-12-16T18:08:56;8.81;86.21
64874;HTU21D;51367;45.204;38.576;2022-12-16T18:11:41;8.79;86.32
64874;HTU21D;51367;45.204;38.576;2022-12-16T18:14:25;8.78;86.41
64874;HTU21D;51367;45.204;38.576;2022-12-16T18:17:11;8.77;86.52
64874;HTU21D;51367;45.204;38.576;2022-12-16T18:19:55;8.75;86.62
64874;HTU21D;51367;45.204;38.576;2022-12-16T18:22:40;8.73;86.80
64874;HTU21D;51367;45.204;38.576;2022-12-16T18:25:24;8.71;86.90
64874;HTU21D;51367;45.204;38.576;2022-12-16T18:28:10;8.70;87.03
64874;HTU21D;51367;45.204;38.576;2022-12-16T18:30:55;8.67;87.08
64874;HTU21D;51367;45.204;38.576;2022-12-16T18:33:40;8.64;87.22
64874;HTU21D;51367;45.204;38.576;2022-12-16T18:36:25;8.62;87.27
64874;HTU21D;51367;45.204;38.576;2022-12-16T18:39:09;8.61;87.28
64874;HTU21D;51367;45.204;38.576;2022-12-16T18:41:54;8.62;87.28
64874;HTU21D;51367;45.204;38.576;2022-12-16T18:44:38;8.63;87.29
64874;HTU21D;51367;45.204;38.576;2022-12-16T18:47:23;8.64;87.27
64874;HTU21D;51367;45.204;38.576;2022-12-16T18:50:07;8.63;87.28
64874;HTU21D;51367;45.204;38.576;2022-12-16T18:52:53;8.62;87.28
64874;HTU21D;51367;45.204;38.576;2022-12-16T18:55:38;8.62;87.32
64874;HTU21D;51367;45.204;38.576;2022-12-16T18:58:23;8.61;87.35
64874;HTU21D;51367;45.204;38.576;2022-12-16T19:01:09;8.60;87.38
64874;HTU21D;51367;45.204;38.576;2022-12-16T19:03:56;8.59;87.41
64874;HTU21D;51367;45.204;38.576;2022-12-16T19:06:40;8.61;87.44